Lady June — WDG4316 — position and weather

sailwx.info

Track history (hours):
 
Tides and Currents Weather Stations Pressure Air Temp Water Temp Dewpoint Dewpoint Depression Visibility Wind Speed Wind Dir Waves Ship Positions

Lady June

Owner: Callais and Sons LLC, Cutoff, LA. More information available from US FCC via Universal Licensing System and Coast Guard Vessel Documentation Center.

Last reported at 2017-Oct-08 19:40 UTC. Time now 2017-Oct-17 13:13 UTC.
Position N 29°34' W 090°29'.
Warning: this ship's position is 8 days out of date.

Length 114 m; draft 2.9 m.

Type: Tug. MMSI: 367535270.

Date/timePositionNaut miles runAvg speedWind from/ knotsBaromVisibWave heightAir tempDewpointWater temp
2017-Oct-08 19:40N 29°34' W 090°29'1 5.2
2017-Oct-08 19:31N 29°34' W 090°30'3 5.1
2017-Oct-08 19:01N 29°34' W 090°33'2 4.3
2017-Oct-08 18:31N 29°34' W 090°35'2 3.9
2017-Oct-08 18:01N 29°35' W 090°37'2 4.1
2017-Oct-08 17:30N 29°36' W 090°39'2 4.2
2017-Oct-08 17:01N 29°37' W 090°41'1 2.7
2017-Oct-08 16:31N 29°36' W 090°43'2 3.6
2017-Oct-08 16:01N 29°34' W 090°43'2 3.4
2017-Oct-08 15:31N 29°33' W 090°45'2 4.6
2017-Oct-08 15:01N 29°32' W 090°47'3 5.6
2017-Oct-08 14:29N 29°32' W 090°51'3 5.4
2017-Oct-08 14:00N 29°33' W 090°54'3 5.7
2017-Oct-08 13:28N 29°34' W 090°57'59 3.8
2017-Oct-07 21:53N 29°49' W 092°02'1 4.0
2017-Oct-07 21:31N 29°49' W 092°04'2 4.0
2017-Oct-07 21:01N 29°48' W 092°06'2 4.0
2017-Oct-07 20:31N 29°47' W 092°08'2 3.3
2017-Oct-07 20:00N 29°47' W 092°10'2 3.3
2017-Oct-07 19:31N 29°47' W 092°12'1 1.5
2017-Oct-07 19:01N 29°47' W 092°12'1 1.4
2017-Oct-07 18:31N 29°47' W 092°13'0 0.0
2017-Oct-07 18:01N 29°47' W 092°13'0 0.0
2017-Oct-07 17:31N 29°47' W 092°13'0 0.0
2017-Oct-07 17:01N 29°47' W 092°13'0 0.0
2017-Oct-07 16:31N 29°47' W 092°13'0 0.0
2017-Oct-07 16:00N 29°47' W 092°13'0 0.0
2017-Oct-07 15:30N 29°47' W 092°13'1 1.8
2017-Oct-07 15:01N 29°47' W 092°12'0 0.2
2017-Oct-07 14:31N 29°47' W 092°12'1 1.6
2017-Oct-07 14:01N 29°47' W 092°13'0 0.0
2017-Oct-07 13:30N 29°47' W 092°13'0 0.0
2017-Oct-07 13:00N 29°47' W 092°13'0 0.0
2017-Oct-07 12:30N 29°47' W 092°13'0 0.0
2017-Oct-07 12:00N 29°47' W 092°13'0 0.0
2017-Oct-07 11:30N 29°47' W 092°13'0 0.0
2017-Oct-07 11:01N 29°47' W 092°13'0 0.0
2017-Oct-07 10:31N 29°47' W 092°13'1 3.0
2017-Oct-07 10:00N 29°48' W 092°15'2 3.3
2017-Oct-07 09:31N 29°49' W 092°17'1 1.2
2017-Oct-07 09:00N 29°49' W 092°17'1 2.8
2017-Oct-07 08:30N 29°50' W 092°18'2 3.4
2017-Oct-07 07:58N 29°51' W 092°20'37 4.0
2017-Oct-06 22:36N 29°56' W 093°03'1 3.8
2017-Oct-06 22:23N 29°56' W 093°04'1 3.4
2017-Oct-06 21:59N 29°56' W 093°05'2 3.5
2017-Oct-06 21:30N 29°56' W 093°07'2 3.7
2017-Oct-06 21:01N 29°56' W 093°09'2 3.7
2017-Oct-06 20:30N 29°58' W 093°11'2 3.6
2017-Oct-06 20:01N 29°59' W 093°12'2 3.6
2017-Oct-06 19:31N 30°00' W 093°14'2 3.3
2017-Oct-06 19:00N 30°02' W 093°14'2 3.4
2017-Oct-06 18:30N 30°03' W 093°16'2 3.6
2017-Oct-06 18:00N 30°05' W 093°17'1 2.5
2017-Oct-06 17:29N 30°05' W 093°18'1 2.4
2017-Oct-06 17:00N 30°06' W 093°19'0 0.1
2017-Oct-06 16:30N 30°06' W 093°19'0 0.1
2017-Oct-06 16:00N 30°06' W 093°19'0 0.0
2017-Oct-06 15:30N 30°06' W 093°19'0 0.1
2017-Oct-06 15:00N 30°06' W 093°19'0 0.0
2017-Oct-06 14:30N 30°06' W 093°19'0 0.1
2017-Oct-06 13:59N 30°06' W 093°19'0 0.0
2017-Oct-06 13:30N 30°06' W 093°19'0 0.0
2017-Oct-06 13:00N 30°06' W 093°19'0 0.0
2017-Oct-06 12:29N 30°06' W 093°19'0 0.1
2017-Oct-06 12:00N 30°06' W 093°19'0 0.0
2017-Oct-06 11:30N 30°06' W 093°19'0 0.0
2017-Oct-06 11:00N 30°06' W 093°19'0 0.0
2017-Oct-06 10:30N 30°06' W 093°19'0 0.1
2017-Oct-06 10:00N 30°06' W 093°19'0 0.1
2017-Oct-06 09:30N 30°06' W 093°19'0 0.0
2017-Oct-06 09:00N 30°06' W 093°19'0 0.0
2017-Oct-06 08:30N 30°06' W 093°19'0 0.0
2017-Oct-06 08:00N 30°06' W 093°19'0 0.1
2017-Oct-06 07:30N 30°06' W 093°19'0 0.0
2017-Oct-06 07:00N 30°06' W 093°19'0 0.0
2017-Oct-06 06:30N 30°06' W 093°19'0 0.0
2017-Oct-06 06:00N 30°06' W 093°19'0 0.0
2017-Oct-06 05:29N 30°06' W 093°19'0 0.4
2017-Oct-06 04:59N 30°06' W 093°19'2 3.8
2017-Oct-06 04:30N 30°04' W 093°20'2 3.1
2017-Oct-06 03:58N 30°04' W 093°22'2 4.1
2017-Oct-06 03:30N 30°04' W 093°24'2 4.9
2017-Oct-06 03:00N 30°04' W 093°27'2 4.8
2017-Oct-06 02:30N 30°04' W 093°30'3 4.9
2017-Oct-06 01:58N 30°04' W 093°33'2 4.9
2017-Oct-06 01:28N 30°04' W 093°36'2 4.5
2017-Oct-06 01:00N 30°04' W 093°38'3 5.6
2017-Oct-06 00:28N 30°03' W 093°42'70 3.3
2017-Oct-05 03:05N 29°30' W 094°53'1 6.3
2017-Oct-05 03:00N 29°31' W 094°53'3 5.9
2017-Oct-05 02:31N 29°33' W 094°55'3 6.0
2017-Oct-05 02:00N 29°36' W 094°57'3 6.0
2017-Oct-05 01:30N 29°39' W 094°58'3 5.8
2017-Oct-05 01:01N 29°41' W 094°59'3 4.8
2017-Oct-05 00:24N 29°44' W 095°01'2 5.4
2017-Oct-05 00:01N 29°45' W 095°04'2 0.9
2017-Oct-04 21:43N 29°45' W 095°06'0 0.0
2017-Oct-04 21:29N 29°45' W 095°06'0 0.0
2017-Oct-04 06:26N 29°46' W 095°06'1 0.2
2017-Oct-03 21:37N 29°45' W 095°04'2 6.5
2017-Oct-03 21:23N 29°44' W 095°03'2 5.5
2017-Oct-03 20:59N 29°43' W 095°01'3 6.1
2017-Oct-03 20:31N 29°41' W 094°59'3 6.5
2017-Oct-03 20:01N 29°37' W 094°58'2 4.9
2017-Oct-03 19:30N 29°37' W 095°00'1 2.1
2017-Oct-03 19:01N 29°37' W 095°01'0 0.2
2017-Oct-03 18:31N 29°37' W 095°01'0 0.0
2017-Oct-03 18:01N 29°37' W 095°01'0 0.0
2017-Oct-03 17:31N 29°37' W 095°01'0 0.0
2017-Oct-03 17:01N 29°37' W 095°01'0 0.0
2017-Oct-03 16:31N 29°37' W 095°01'0 0.0
2017-Oct-03 16:01N 29°37' W 095°01'0 0.0
2017-Oct-03 15:31N 29°37' W 095°01'0 0.0
2017-Oct-03 15:01N 29°37' W 095°01'0 0.1
2017-Oct-03 14:00N 29°36' W 095°01'0 0.0
2017-Oct-03 13:30N 29°36' W 095°01'0 0.0
2017-Oct-03 13:01N 29°36' W 095°01'0 0.0
2017-Oct-03 12:30N 29°36' W 095°01'0 0.0
2017-Oct-03 12:00N 29°36' W 095°01'0 0.0
2017-Oct-03 11:30N 29°36' W 095°01'0 0.1
2017-Oct-03 11:00N 29°37' W 095°01'0 0.0
2017-Oct-03 10:31N 29°37' W 095°01'0 0.0
2017-Oct-03 10:00N 29°37' W 095°01'0 0.0
2017-Oct-03 09:31N 29°37' W 095°01'0 0.0
2017-Oct-03 09:01N 29°37' W 095°01'0 0.0
2017-Oct-03 08:30N 29°37' W 095°01'0 0.0
2017-Oct-03 08:01N 29°37' W 095°01'0 0.0
2017-Oct-03 07:31N 29°37' W 095°01'0 0.0
2017-Oct-03 07:01N 29°37' W 095°01'0 0.0
2017-Oct-03 06:30N 29°37' W 095°01'0 0.0
2017-Oct-03 06:01N 29°37' W 095°01'0 0.0
2017-Oct-03 05:31N 29°37' W 095°01'0 0.0
2017-Oct-03 05:00N 29°37' W 095°01'0 0.6
2017-Oct-03 04:31N 29°37' W 095°01'2 4.7
2017-Oct-03 04:01N 29°37' W 094°59'2 3.8
2017-Oct-03 03:30N 29°39' W 094°58'3 6.6
2017-Oct-03 03:00N 29°42' W 094°60'3 6.3
2017-Oct-03 02:30N 29°44' W 095°03'  
Track history (hours):
 
Tides and Currents Weather Stations Pressure Air Temp Water Temp Dewpoint Dewpoint Depression Visibility Wind Speed Wind Dir Waves Ship Positions

Lady June

Owner: Callais and Sons LLC, Cutoff, LA. More information available from US FCC via Universal Licensing System and Coast Guard Vessel Documentation Center.

Last reported at 2017-Oct-08 19:40 UTC. Time now 2017-Oct-17 13:13 UTC.
Position N 29°34' W 090°29'.
Warning: this ship's position is 8 days out of date.

Length 114 m; draft 2.9 m.

Type: Tug. MMSI: 367535270.

Date/timePositionNaut miles runAvg speedWind from/ knotsBaromVisibWave heightAir tempDewpointWater temp
2017-Oct-08 19:40N 29°34' W 090°29'1 5.2
2017-Oct-08 19:31N 29°34' W 090°30'3 5.1
2017-Oct-08 19:01N 29°34' W 090°33'2 4.3
2017-Oct-08 18:31N 29°34' W 090°35'2 3.9
2017-Oct-08 18:01N 29°35' W 090°37'2 4.1
2017-Oct-08 17:30N 29°36' W 090°39'2 4.2
2017-Oct-08 17:01N 29°37' W 090°41'1 2.7
2017-Oct-08 16:31N 29°36' W 090°43'2 3.6
2017-Oct-08 16:01N 29°34' W 090°43'2 3.4
2017-Oct-08 15:31N 29°33' W 090°45'2 4.6
2017-Oct-08 15:01N 29°32' W 090°47'3 5.6
2017-Oct-08 14:29N 29°32' W 090°51'3 5.4
2017-Oct-08 14:00N 29°33' W 090°54'3 5.7
2017-Oct-08 13:28N 29°34' W 090°57'59 3.8
2017-Oct-07 21:53N 29°49' W 092°02'1 4.0
2017-Oct-07 21:31N 29°49' W 092°04'2 4.0
2017-Oct-07 21:01N 29°48' W 092°06'2 4.0
2017-Oct-07 20:31N 29°47' W 092°08'2 3.3
2017-Oct-07 20:00N 29°47' W 092°10'2 3.3
2017-Oct-07 19:31N 29°47' W 092°12'1 1.5
2017-Oct-07 19:01N 29°47' W 092°12'1 1.4
2017-Oct-07 18:31N 29°47' W 092°13'0 0.0
2017-Oct-07 18:01N 29°47' W 092°13'0 0.0
2017-Oct-07 17:31N 29°47' W 092°13'0 0.0
2017-Oct-07 17:01N 29°47' W 092°13'0 0.0
2017-Oct-07 16:31N 29°47' W 092°13'0 0.0
2017-Oct-07 16:00N 29°47' W 092°13'0 0.0
2017-Oct-07 15:30N 29°47' W 092°13'1 1.8
2017-Oct-07 15:01N 29°47' W 092°12'0 0.2
2017-Oct-07 14:31N 29°47' W 092°12'1 1.6
2017-Oct-07 14:01N 29°47' W 092°13'0 0.0
2017-Oct-07 13:30N 29°47' W 092°13'0 0.0
2017-Oct-07 13:00N 29°47' W 092°13'0 0.0
2017-Oct-07 12:30N 29°47' W 092°13'0 0.0
2017-Oct-07 12:00N 29°47' W 092°13'0 0.0
2017-Oct-07 11:30N 29°47' W 092°13'0 0.0
2017-Oct-07 11:01N 29°47' W 092°13'0 0.0
2017-Oct-07 10:31N 29°47' W 092°13'1 3.0
2017-Oct-07 10:00N 29°48' W 092°15'2 3.3
2017-Oct-07 09:31N 29°49' W 092°17'1 1.2
2017-Oct-07 09:00N 29°49' W 092°17'1 2.8
2017-Oct-07 08:30N 29°50' W 092°18'2 3.4
2017-Oct-07 07:58N 29°51' W 092°20'37 4.0
2017-Oct-06 22:36N 29°56' W 093°03'1 3.8
2017-Oct-06 22:23N 29°56' W 093°04'1 3.4
2017-Oct-06 21:59N 29°56' W 093°05'2 3.5
2017-Oct-06 21:30N 29°56' W 093°07'2 3.7
2017-Oct-06 21:01N 29°56' W 093°09'2 3.7
2017-Oct-06 20:30N 29°58' W 093°11'2 3.6
2017-Oct-06 20:01N 29°59' W 093°12'2 3.6
2017-Oct-06 19:31N 30°00' W 093°14'2 3.3
2017-Oct-06 19:00N 30°02' W 093°14'2 3.4
2017-Oct-06 18:30N 30°03' W 093°16'2 3.6
2017-Oct-06 18:00N 30°05' W 093°17'1 2.5
2017-Oct-06 17:29N 30°05' W 093°18'1 2.4
2017-Oct-06 17:00N 30°06' W 093°19'0 0.1
2017-Oct-06 16:30N 30°06' W 093°19'0 0.1
2017-Oct-06 16:00N 30°06' W 093°19'0 0.0
2017-Oct-06 15:30N 30°06' W 093°19'0 0.1
2017-Oct-06 15:00N 30°06' W 093°19'0 0.0
2017-Oct-06 14:30N 30°06' W 093°19'0 0.1
2017-Oct-06 13:59N 30°06' W 093°19'0 0.0
2017-Oct-06 13:30N 30°06' W 093°19'0 0.0
2017-Oct-06 13:00N 30°06' W 093°19'0 0.0
2017-Oct-06 12:29N 30°06' W 093°19'0 0.1
2017-Oct-06 12:00N 30°06' W 093°19'0 0.0
2017-Oct-06 11:30N 30°06' W 093°19'0 0.0
2017-Oct-06 11:00N 30°06' W 093°19'0 0.0
2017-Oct-06 10:30N 30°06' W 093°19'0 0.1
2017-Oct-06 10:00N 30°06' W 093°19'0 0.1
2017-Oct-06 09:30N 30°06' W 093°19'0 0.0
2017-Oct-06 09:00N 30°06' W 093°19'0 0.0
2017-Oct-06 08:30N 30°06' W 093°19'0 0.0
2017-Oct-06 08:00N 30°06' W 093°19'0 0.1
2017-Oct-06 07:30N 30°06' W 093°19'0 0.0
2017-Oct-06 07:00N 30°06' W 093°19'0 0.0
2017-Oct-06 06:30N 30°06' W 093°19'0 0.0
2017-Oct-06 06:00N 30°06' W 093°19'0 0.0
2017-Oct-06 05:29N 30°06' W 093°19'0 0.4
2017-Oct-06 04:59N 30°06' W 093°19'2 3.8
2017-Oct-06 04:30N 30°04' W 093°20'2 3.1
2017-Oct-06 03:58N 30°04' W 093°22'2 4.1
2017-Oct-06 03:30N 30°04' W 093°24'2 4.9
2017-Oct-06 03:00N 30°04' W 093°27'2 4.8
2017-Oct-06 02:30N 30°04' W 093°30'3 4.9
2017-Oct-06 01:58N 30°04' W 093°33'2 4.9
2017-Oct-06 01:28N 30°04' W 093°36'2 4.5
2017-Oct-06 01:00N 30°04' W 093°38'3 5.6
2017-Oct-06 00:28N 30°03' W 093°42'70 3.3
2017-Oct-05 03:05N 29°30' W 094°53'1 6.3
2017-Oct-05 03:00N 29°31' W 094°53'3 5.9
2017-Oct-05 02:31N 29°33' W 094°55'3 6.0
2017-Oct-05 02:00N 29°36' W 094°57'3 6.0
2017-Oct-05 01:30N 29°39' W 094°58'3 5.8
2017-Oct-05 01:01N 29°41' W 094°59'3 4.8
2017-Oct-05 00:24N 29°44' W 095°01'2 5.4
2017-Oct-05 00:01N 29°45' W 095°04'2 0.9
2017-Oct-04 21:43N 29°45' W 095°06'0 0.0
2017-Oct-04 21:29N 29°45' W 095°06'0 0.0
2017-Oct-04 06:26N 29°46' W 095°06'1 0.2
2017-Oct-03 21:37N 29°45' W 095°04'2 6.5
2017-Oct-03 21:23N 29°44' W 095°03'2 5.5
2017-Oct-03 20:59N 29°43' W 095°01'3 6.1
2017-Oct-03 20:31N 29°41' W 094°59'3 6.5
2017-Oct-03 20:01N 29°37' W 094°58'2 4.9
2017-Oct-03 19:30N 29°37' W 095°00'1 2.1
2017-Oct-03 19:01N 29°37' W 095°01'0 0.2
2017-Oct-03 18:31N 29°37' W 095°01'0 0.0
2017-Oct-03 18:01N 29°37' W 095°01'0 0.0
2017-Oct-03 17:31N 29°37' W 095°01'0 0.0
2017-Oct-03 17:01N 29°37' W 095°01'0 0.0
2017-Oct-03 16:31N 29°37' W 095°01'0 0.0
2017-Oct-03 16:01N 29°37' W 095°01'0 0.0
2017-Oct-03 15:31N 29°37' W 095°01'0 0.0
2017-Oct-03 15:01N 29°37' W 095°01'0 0.1
2017-Oct-03 14:00N 29°36' W 095°01'0 0.0
2017-Oct-03 13:30N 29°36' W 095°01'0 0.0
2017-Oct-03 13:01N 29°36' W 095°01'0 0.0
2017-Oct-03 12:30N 29°36' W 095°01'0 0.0
2017-Oct-03 12:00N 29°36' W 095°01'0 0.0
2017-Oct-03 11:30N 29°36' W 095°01'0 0.1
2017-Oct-03 11:00N 29°37' W 095°01'0 0.0
2017-Oct-03 10:31N 29°37' W 095°01'0 0.0
2017-Oct-03 10:00N 29°37' W 095°01'0 0.0
2017-Oct-03 09:31N 29°37' W 095°01'0 0.0
2017-Oct-03 09:01N 29°37' W 095°01'0 0.0
2017-Oct-03 08:30N 29°37' W 095°01'0 0.0
2017-Oct-03 08:01N 29°37' W 095°01'0 0.0
2017-Oct-03 07:31N 29°37' W 095°01'0 0.0
2017-Oct-03 07:01N 29°37' W 095°01'0 0.0
2017-Oct-03 06:30N 29°37' W 095°01'0 0.0
2017-Oct-03 06:01N 29°37' W 095°01'0 0.0
2017-Oct-03 05:31N 29°37' W 095°01'0 0.0
2017-Oct-03 05:00N 29°37' W 095°01'0 0.6
2017-Oct-03 04:31N 29°37' W 095°01'2 4.7
2017-Oct-03 04:01N 29°37' W 094°59'2 3.8
2017-Oct-03 03:30N 29°39' W 094°58'3 6.6
2017-Oct-03 03:00N 29°42' W 094°60'3 6.3
2017-Oct-03 02:30N 29°44' W 095°03'  

Dump ship's entire track history